createdAt,value
2017-09-25T00:55:11.466Z,58.45
2017-09-25T00:57:59.918Z,66.30
2017-09-25T01:00:39.218Z,64.53
2017-09-25T01:03:18.682Z,73.43
2017-09-25T01:05:58.381Z,57.22
2017-09-25T01:08:31.260Z,63.80
2017-09-25T01:11:13.706Z,53.53
2017-09-25T01:13:42.084Z,62.88
2017-09-25T01:16:11.694Z,66.37
2017-09-25T01:18:40.102Z,57.75
2017-09-25T01:23:50.826Z,62.78
2017-09-25T01:26:19.156Z,57.20
2017-09-25T01:28:46.642Z,54.35
2017-09-25T01:31:14.807Z,58.08
2017-09-25T01:33:42.429Z,51.40
2017-09-25T01:36:10.242Z,53.38
2017-09-25T01:38:37.987Z,52.67
2017-09-25T01:41:05.466Z,52.75
2017-09-25T01:43:33.803Z,54.42
2017-09-25T01:46:01.365Z,58.15
2017-09-25T01:48:28.863Z,51.47
2017-09-25T01:50:56.314Z,56.30
2017-09-25T01:53:23.810Z,39.95
2017-09-25T01:55:51.263Z,47.83
2017-09-25T01:58:18.728Z,41.30
2017-09-25T02:00:46.211Z,43.70
2017-09-25T02:03:13.685Z,42.75
2017-09-25T02:05:41.142Z,39.15
2017-09-25T02:08:08.623Z,39.47
2017-09-25T02:10:36.073Z,39.38
2017-09-25T02:13:03.529Z,45.70
2017-09-25T02:15:30.999Z,42.92
2017-09-25T02:17:58.441Z,43.13
2017-09-25T02:20:25.900Z,35.20
2017-09-25T02:22:53.385Z,42.00
2017-09-25T02:25:21.607Z,43.53
2017-09-25T02:27:49.067Z,44.53
2017-09-25T02:30:16.531Z,49.38
2017-09-25T02:32:43.978Z,45.97
2017-09-25T02:35:11.452Z,42.00
2017-09-25T02:37:38.911Z,42.62
2017-09-25T02:40:06.375Z,47.58
2017-09-25T02:42:33.828Z,46.05
2017-09-25T02:45:01.288Z,40.12
2017-09-25T02:47:28.738Z,38.47
2017-09-25T02:49:56.206Z,38.00
2017-09-25T02:52:23.658Z,36.10
2017-09-25T02:54:51.105Z,39.67
2017-09-25T02:57:18.565Z,33.92
2017-09-25T02:59:46.027Z,46.83
2017-09-25T03:02:13.489Z,38.00
2017-09-25T03:04:40.938Z,41.42
2017-09-25T03:07:08.420Z,44.67
2017-09-25T03:09:36.642Z,40.25
2017-09-25T03:12:04.106Z,43.92
2017-09-25T03:14:31.559Z,43.10
2017-09-25T03:16:59.013Z,39.90
2017-09-25T03:19:26.478Z,39.17
2017-09-25T03:21:53.938Z,43.30
2017-09-25T03:24:21.394Z,42.28
2017-09-25T03:26:48.863Z,39.38
2017-09-25T03:29:16.318Z,39.92
2017-09-25T03:31:43.774Z,39.33
2017-09-25T03:34:11.234Z,36.85
2017-09-25T03:36:38.689Z,38.50
2017-09-25T03:39:06.148Z,34.58
2017-09-25T03:41:33.607Z,36.42
2017-09-25T03:44:01.078Z,34.10
2017-09-25T03:46:28.539Z,36.92
2017-09-25T03:48:55.990Z,38.03
2017-09-25T03:51:23.445Z,34.67
2017-09-25T03:53:50.934Z,33.08
2017-09-25T03:56:19.158Z,33.80
2017-09-25T03:58:46.622Z,32.63
2017-09-25T04:01:14.088Z,27.65
2017-09-25T04:03:41.547Z,35.58
2017-09-25T04:06:09.015Z,33.33
2017-09-25T04:08:36.470Z,30.08
2017-09-25T04:11:03.926Z,36.72
2017-09-25T04:13:31.390Z,29.40
2017-09-25T04:15:58.838Z,32.85
2017-09-25T04:18:26.309Z,35.25
2017-09-25T04:20:54.093Z,36.55
2017-09-25T04:23:22.326Z,38.88
2017-09-25T04:25:49.779Z,34.15
2017-09-25T04:28:17.240Z,37.67
2017-09-25T04:30:44.695Z,32.30
2017-09-25T04:33:12.171Z,29.45
2017-09-25T04:35:39.613Z,35.08
2017-09-25T04:38:07.073Z,33.17
2017-09-25T04:40:34.529Z,27.05
2017-09-25T04:43:02.013Z,30.42
2017-09-25T04:45:29.475Z,32.70
2017-09-25T04:47:56.934Z,32.78
2017-09-25T04:50:26.066Z,42.50
2017-09-25T04:52:53.522Z,32.58
2017-09-25T04:55:20.991Z,26.98
2017-09-25T04:57:48.449Z,30.05
2017-09-25T05:00:15.903Z,29.05
2017-09-25T05:02:43.367Z,23.25
2017-09-25T05:05:10.862Z,27.48
2017-09-25T05:07:38.306Z,25.25
2017-09-25T05:10:05.772Z,21.65
2017-09-25T05:12:33.226Z,22.83
2017-09-25T05:15:00.677Z,24.20
2017-09-25T05:17:28.139Z,22.17
2017-09-25T05:19:55.602Z,23.45
2017-09-25T05:22:23.067Z,20.40
2017-09-25T05:24:50.529Z,24.60
2017-09-25T05:27:18.819Z,21.90
2017-09-25T05:29:47.041Z,23.75
2017-09-25T05:32:14.493Z,21.48
2017-09-25T05:34:41.958Z,23.60
2017-09-25T05:37:09.410Z,20.70
2017-09-25T05:39:36.865Z,22.70
2017-09-25T05:42:04.327Z,22.62
2017-09-25T05:44:31.804Z,18.48
2017-09-25T05:46:59.267Z,16.58
2017-09-25T05:49:26.748Z,20.05
2017-09-25T05:51:54.974Z,17.73
2017-09-25T05:54:22.426Z,18.95
2017-09-25T05:56:49.896Z,15.45
2017-09-25T05:59:17.351Z,18.30
2017-09-25T06:01:44.821Z,18.40
2017-09-25T06:04:12.280Z,17.48
2017-09-25T06:06:39.961Z,17.12
2017-09-25T06:12:14.914Z,17.27
2017-09-25T06:14:50.167Z,15.07
